sensor_id;sensor_type;location;lat;lon;timestamp;pressure;altitude;pressure_sealevel;temperature;humidity
74544;BME280;63016;55.030;38.710;2023-07-13T00:01:48;99123.34;;;13.60;61.20
74544;BME280;63016;55.030;38.710;2023-07-13T00:04:18;99125.75;;;13.61;61.16
74544;BME280;63016;55.030;38.710;2023-07-13T00:06:44;99127.34;;;13.62;61.03
74544;BME280;63016;55.030;38.710;2023-07-13T00:09:15;99125.16;;;13.59;61.53
74544;BME280;63016;55.030;38.710;2023-07-13T00:11:42;99117.09;;;13.61;60.95
74544;BME280;63016;55.030;38.710;2023-07-13T00:14:08;99124.94;;;13.61;61.43
74544;BME280;63016;55.030;38.710;2023-07-13T00:16:36;99121.31;;;13.62;61.06
74544;BME280;63016;55.030;38.710;2023-07-13T00:19:02;99125.75;;;13.61;61.41
74544;BME280;63016;55.030;38.710;2023-07-13T00:21:28;99127.19;;;13.64;61.22
74544;BME280;63016;55.030;38.710;2023-07-13T00:23:53;99124.75;;;13.62;61.19
74544;BME280;63016;55.030;38.710;2023-07-13T00:26:19;99122.53;;;13.66;61.51
74544;BME280;63016;55.030;38.710;2023-07-13T00:28:44;99126.75;;;13.67;61.31
74544;BME280;63016;55.030;38.710;2023-07-13T00:31:11;99118.09;;;13.67;61.47
74544;BME280;63016;55.030;38.710;2023-07-13T00:33:37;99124.75;;;13.69;61.15
74544;BME280;63016;55.030;38.710;2023-07-13T00:36:03;99120.91;;;13.65;61.34
74544;BME280;63016;55.030;38.710;2023-07-13T00:38:29;99124.13;;;13.67;61.48
74544;BME280;63016;55.030;38.710;2023-07-13T00:40:55;99127.16;;;13.71;61.26
74544;BME280;63016;55.030;38.710;2023-07-13T00:43:22;99127.97;;;13.71;61.24
74544;BME280;63016;55.030;38.710;2023-07-13T00:48:26;99125.53;;;13.76;61.66
74544;BME280;63016;55.030;38.710;2023-07-13T00:50:55;99134.19;;;13.77;61.64
74544;BME280;63016;55.030;38.710;2023-07-13T00:53:22;99136.81;;;13.77;61.39
74544;BME280;63016;55.030;38.710;2023-07-13T00:55:49;99134.00;;;13.78;61.52
74544;BME280;63016;55.030;38.710;2023-07-13T00:58:15;99140.06;;;13.79;61.41
74544;BME280;63016;55.030;38.710;2023-07-13T01:00:41;99139.03;;;13.80;61.33
74544;BME280;63016;55.030;38.710;2023-07-13T01:03:07;99132.56;;;13.82;61.33
74544;BME280;63016;55.030;38.710;2023-07-13T01:05:35;99124.91;;;13.81;61.47
74544;BME280;63016;55.030;38.710;2023-07-13T01:08:02;99126.53;;;13.82;61.70
74544;BME280;63016;55.030;38.710;2023-07-13T01:10:30;99129.94;;;13.82;61.40
74544;BME280;63016;55.030;38.710;2023-07-13T01:13:06;99127.31;;;13.82;61.33
74544;BME280;63016;55.030;38.710;2023-07-13T01:15:41;99124.50;;;13.84;61.42
74544;BME280;63016;55.030;38.710;2023-07-13T01:18:09;99128.97;;;13.83;61.36
74544;BME280;63016;55.030;38.710;2023-07-13T01:20:37;99123.09;;;13.81;61.22
74544;BME280;63016;55.030;38.710;2023-07-13T01:23:11;99122.47;;;13.86;61.61
74544;BME280;63016;55.030;38.710;2023-07-13T01:25:38;99113.22;;;13.83;61.41
74544;BME280;63016;55.030;38.710;2023-07-13T01:28:08;99118.03;;;13.86;61.61
74544;BME280;63016;55.030;38.710;2023-07-13T01:30:38;99126.13;;;13.85;61.67
74544;BME280;63016;55.030;38.710;2023-07-13T01:33:08;99117.22;;;13.86;61.54
74544;BME280;63016;55.030;38.710;2023-07-13T01:35:35;99112.78;;;13.86;61.51
74544;BME280;63016;55.030;38.710;2023-07-13T01:38:02;99122.09;;;13.89;61.71
74544;BME280;63016;55.030;38.710;2023-07-13T01:40:28;99114.22;;;13.89;61.85
74544;BME280;63016;55.030;38.710;2023-07-13T01:42:54;99112.78;;;13.93;61.69
74544;BME280;63016;55.030;38.710;2023-07-13T01:45:20;99109.78;;;13.89;61.58
74544;BME280;63016;55.030;38.710;2023-07-13T01:47:46;99117.03;;;13.94;61.71
74544;BME280;63016;55.030;38.710;2023-07-13T01:50:11;99105.50;;;13.95;61.49
74544;BME280;63016;55.030;38.710;2023-07-13T01:52:36;99105.91;;;13.99;61.60
74544;BME280;63016;55.030;38.710;2023-07-13T01:55:02;99109.56;;;13.98;61.36
74544;BME280;63016;55.030;38.710;2023-07-13T01:57:28;99107.13;;;13.96;61.36
74544;BME280;63016;55.030;38.710;2023-07-13T01:59:53;99114.81;;;13.98;61.45
74544;BME280;63016;55.030;38.710;2023-07-13T02:02:19;99100.66;;;13.99;61.80
74544;BME280;63016;55.030;38.710;2023-07-13T02:04:45;99107.72;;;13.98;61.74
74544;BME280;63016;55.030;38.710;2023-07-13T02:07:10;99104.69;;;14.01;61.80
74544;BME280;63016;55.030;38.710;2023-07-13T02:09:36;99108.50;;;14.05;61.38
74544;BME280;63016;55.030;38.710;2023-07-13T02:12:02;99103.03;;;14.07;61.59
74544;BME280;63016;55.030;38.710;2023-07-13T02:14:27;99103.66;;;14.09;61.79
74544;BME280;63016;55.030;38.710;2023-07-13T02:16:53;99100.22;;;14.08;61.50
74544;BME280;63016;55.030;38.710;2023-07-13T02:19:18;99111.13;;;14.12;61.65
74544;BME280;63016;55.030;38.710;2023-07-13T02:21:44;99110.09;;;14.13;61.42
74544;BME280;63016;55.030;38.710;2023-07-13T02:24:09;99112.50;;;14.14;61.53
74544;BME280;63016;55.030;38.710;2023-07-13T02:26:35;99113.09;;;14.17;61.64
74544;BME280;63016;55.030;38.710;2023-07-13T02:29:01;99107.84;;;14.17;61.87
74544;BME280;63016;55.030;38.710;2023-07-13T02:31:26;99109.84;;;14.21;61.98
74544;BME280;63016;55.030;38.710;2023-07-13T02:33:52;99107.03;;;14.23;61.72
74544;BME280;63016;55.030;38.710;2023-07-13T02:36:18;99109.22;;;14.26;61.43
74544;BME280;63016;55.030;38.710;2023-07-13T02:38:44;99108.25;;;14.27;61.92
74544;BME280;63016;55.030;38.710;2023-07-13T02:41:10;99110.66;;;14.28;61.80
74544;BME280;63016;55.030;38.710;2023-07-13T02:43:37;99108.41;;;14.32;61.53
74544;BME280;63016;55.030;38.710;2023-07-13T02:46:03;99101.13;;;14.34;61.95
74544;BME280;63016;55.030;38.710;2023-07-13T02:48:35;99110.19;;;14.38;61.80
74544;BME280;63016;55.030;38.710;2023-07-13T02:51:01;99109.78;;;14.41;61.89
74544;BME280;63016;55.030;38.710;2023-07-13T02:53:26;99105.13;;;14.43;61.85
74544;BME280;63016;55.030;38.710;2023-07-13T02:55:52;99097.47;;;14.42;61.88
74544;BME280;63016;55.030;38.710;2023-07-13T02:58:17;99104.72;;;14.46;61.71
74544;BME280;63016;55.030;38.710;2023-07-13T03:00:44;99102.50;;;14.50;61.87
74544;BME280;63016;55.030;38.710;2023-07-13T03:03:12;99102.28;;;14.51;61.77
74544;BME280;63016;55.030;38.710;2023-07-13T03:05:41;99101.06;;;14.54;61.76
74544;BME280;63016;55.030;38.710;2023-07-13T03:08:07;99088.94;;;14.53;61.84
74544;BME280;63016;55.030;38.710;2023-07-13T03:10:33;99094.75;;;14.61;62.04
74544;BME280;63016;55.030;38.710;2023-07-13T03:13:00;99089.50;;;14.61;61.91
74544;BME280;63016;55.030;38.710;2023-07-13T03:15:26;99091.50;;;14.66;62.01
74544;BME280;63016;55.030;38.710;2023-07-13T03:17:52;99096.31;;;14.69;61.72
74544;BME280;63016;55.030;38.710;2023-07-13T03:20:18;99092.09;;;14.68;61.50
74544;BME280;63016;55.030;38.710;2023-07-13T03:22:43;99096.94;;;14.71;62.06
74544;BME280;63016;55.030;38.710;2023-07-13T03:25:09;99102.75;;;14.73;61.91
74544;BME280;63016;55.030;38.710;2023-07-13T03:27:34;99105.38;;;14.73;61.96
74544;BME280;63016;55.030;38.710;2023-07-13T03:30:00;99120.94;;;14.75;61.96
74544;BME280;63016;55.030;38.710;2023-07-13T03:32:26;99098.91;;;14.76;61.92
74544;BME280;63016;55.030;38.710;2023-07-13T03:34:51;99107.38;;;14.78;61.76
74544;BME280;63016;55.030;38.710;2023-07-13T03:37:17;99095.28;;;14.77;61.80
74544;BME280;63016;55.030;38.710;2023-07-13T03:39:42;99101.91;;;14.79;61.83
74544;BME280;63016;55.030;38.710;2023-07-13T03:42:08;99093.03;;;14.80;61.76
74544;BME280;63016;55.030;38.710;2023-07-13T03:44:34;99096.25;;;14.82;62.19
74544;BME280;63016;55.030;38.710;2023-07-13T03:46:59;99101.09;;;14.85;62.37
74544;BME280;63016;55.030;38.710;2023-07-13T03:49:25;99096.19;;;14.89;61.76
74544;BME280;63016;55.030;38.710;2023-07-13T03:51:50;99105.09;;;14.88;61.92
74544;BME280;63016;55.030;38.710;2023-07-13T03:54:16;99094.38;;;14.89;62.13
74544;BME280;63016;55.030;38.710;2023-07-13T03:56:42;99103.44;;;14.94;61.69
74544;BME280;63016;55.030;38.710;2023-07-13T03:59:07;99103.81;;;14.97;61.71
74544;BME280;63016;55.030;38.710;2023-07-13T04:01:33;99106.22;;;14.99;62.19
74544;BME280;63016;55.030;38.710;2023-07-13T04:03:58;99110.25;;;15.01;61.72
74544;BME280;63016;55.030;38.710;2023-07-13T04:06:27;99098.53;;;15.04;62.03
74544;BME280;63016;55.030;38.710;2023-07-13T04:08:56;99103.34;;;15.07;61.66
74544;BME280;63016;55.030;38.710;2023-07-13T04:11:25;99110.00;;;15.09;61.99
74544;BME280;63016;55.030;38.710;2023-07-13T04:13:51;99109.78;;;15.11;62.20
74544;BME280;63016;55.030;38.710;2023-07-13T04:16:17;99102.28;;;15.14;61.80
74544;BME280;63016;55.030;38.710;2023-07-13T04:18:44;99106.50;;;15.15;62.05
74544;BME280;63016;55.030;38.710;2023-07-13T04:21:10;99109.72;;;15.17;61.89
74544;BME280;63016;55.030;38.710;2023-07-13T04:23:37;99103.47;;;15.19;61.90
74544;BME280;63016;55.030;38.710;2023-07-13T04:26:03;99102.44;;;15.20;61.94
74544;BME280;63016;55.030;38.710;2023-07-13T04:28:29;99103.41;;;15.25;61.84
74544;BME280;63016;55.030;38.710;2023-07-13T04:30:55;99103.19;;;15.27;61.63
74544;BME280;63016;55.030;38.710;2023-07-13T04:33:21;99103.78;;;15.29;61.85
74544;BME280;63016;55.030;38.710;2023-07-13T04:35:51;99101.97;;;15.29;61.81
74544;BME280;63016;55.030;38.710;2023-07-13T04:38:29;99103.94;;;15.34;62.12
74544;BME280;63016;55.030;38.710;2023-07-13T04:41:01;99099.25;;;15.36;61.95
74544;BME280;63016;55.030;38.710;2023-07-13T04:43:28;99108.91;;;15.42;62.55
74544;BME280;63016;55.030;38.710;2023-07-13T04:45:54;99096.59;;;15.42;62.29
74544;BME280;63016;55.030;38.710;2023-07-13T04:48:20;99103.81;;;15.47;62.08
74544;BME280;63016;55.030;38.710;2023-07-13T04:50:46;99094.47;;;15.51;62.33
74544;BME280;63016;55.030;38.710;2023-07-13T04:53:12;99094.84;;;15.55;62.26
74544;BME280;63016;55.030;38.710;2023-07-13T04:55:38;99090.75;;;15.59;62.08
74544;BME280;63016;55.030;38.710;2023-07-13T04:58:03;99092.78;;;15.63;62.21
74544;BME280;63016;55.030;38.710;2023-07-13T05:00:30;99095.78;;;15.67;61.94
74544;BME280;63016;55.030;38.710;2023-07-13T05:02:57;99092.28;;;15.73;62.71
74544;BME280;63016;55.030;38.710;2023-07-13T05:05:23;99089.78;;;15.78;62.54
74544;BME280;63016;55.030;38.710;2023-07-13T05:07:49;99089.69;;;15.85;62.37
74544;BME280;63016;55.030;38.710;2023-07-13T05:10:15;99094.31;;;15.89;62.55
74544;BME280;63016;55.030;38.710;2023-07-13T05:12:41;99097.47;;;15.98;62.18
74544;BME280;63016;55.030;38.710;2023-07-13T05:15:07;99086.03;;;16.04;62.56
74544;BME280;63016;55.030;38.710;2023-07-13T05:17:33;99089.63;;;16.10;62.27
74544;BME280;63016;55.030;38.710;2023-07-13T05:19:58;99085.09;;;16.17;62.29
74544;BME280;63016;55.030;38.710;2023-07-13T05:22:24;99092.91;;;16.24;62.51
74544;BME280;63016;55.030;38.710;2023-07-13T05:24:49;99096.47;;;16.29;62.42
74544;BME280;63016;55.030;38.710;2023-07-13T05:27:14;99100.63;;;16.37;62.58
74544;BME280;63016;55.030;38.710;2023-07-13T05:29:40;99092.88;;;16.42;62.24
74544;BME280;63016;55.030;38.710;2023-07-13T05:32:06;99103.31;;;16.49;62.16
74544;BME280;63016;55.030;38.710;2023-07-13T05:34:31;99104.69;;;16.51;61.83
74544;BME280;63016;55.030;38.710;2023-07-13T05:36:57;99111.94;;;16.56;61.76
74544;BME280;63016;55.030;38.710;2023-07-13T05:39:22;99117.75;;;16.58;61.98
74544;BME280;63016;55.030;38.710;2023-07-13T05:41:48;99107.81;;;16.60;61.82
74544;BME280;63016;55.030;38.710;2023-07-13T05:44:14;99093.41;;;16.62;62.22
74544;BME280;63016;55.030;38.710;2023-07-13T05:46:39;99110.38;;;16.66;61.43
74544;BME280;63016;55.030;38.710;2023-07-13T05:49:05;99109.13;;;16.69;61.60
74544;BME280;63016;55.030;38.710;2023-07-13T05:51:30;99107.88;;;16.72;61.56
74544;BME280;63016;55.030;38.710;2023-07-13T05:53:56;99097.94;;;16.74;61.82
74544;BME280;63016;55.030;38.710;2023-07-13T05:56:21;99105.38;;;16.77;61.86
74544;BME280;63016;55.030;38.710;2023-07-13T05:58:48;99100.47;;;16.80;61.75
74544;BME280;63016;55.030;38.710;2023-07-13T06:01:15;99109.53;;;16.84;61.79
74544;BME280;63016;55.030;38.710;2023-07-13T06:03:41;99107.03;;;16.89;61.87
74544;BME280;63016;55.030;38.710;2023-07-13T06:06:08;99099.47;;;16.93;62.00
74544;BME280;63016;55.030;38.710;2023-07-13T06:08:34;99100.63;;;16.97;61.49
74544;BME280;63016;55.030;38.710;2023-07-13T06:11:26;99065.47;;;17.03;61.49
74544;BME280;63016;55.030;38.710;2023-07-13T06:13:53;99067.06;;;17.04;61.54
74544;BME280;63016;55.030;38.710;2023-07-13T06:16:19;99067.63;;;17.06;61.70
74544;BME280;63016;55.030;38.710;2023-07-13T06:18:45;99107.16;;;17.06;61.62
74544;BME280;63016;55.030;38.710;2023-07-13T06:21:19;99084.47;;;17.05;61.61
74544;BME280;63016;55.030;38.710;2023-07-13T06:23:47;99095.63;;;17.07;61.74
74544;BME280;63016;55.030;38.710;2023-07-13T06:26:16;99085.63;;;17.09;61.56
74544;BME280;63016;55.030;38.710;2023-07-13T06:28:43;99093.31;;;17.11;61.72
74544;BME280;63016;55.030;38.710;2023-07-13T06:31:10;99067.75;;;17.11;61.94
74544;BME280;63016;55.030;38.710;2023-07-13T06:33:36;99083.34;;;17.13;61.68
74544;BME280;63016;55.030;38.710;2023-07-13T06:36:03;99078.28;;;17.11;61.79
74544;BME280;63016;55.030;38.710;2023-07-13T06:38:30;99087.81;;;17.12;61.77
74544;BME280;63016;55.030;38.710;2023-07-13T06:40:56;99090.78;;;17.16;61.98
74544;BME280;63016;55.030;38.710;2023-07-13T06:43:21;99096.41;;;17.19;62.02
74544;BME280;63016;55.030;38.710;2023-07-13T06:45:48;99083.59;;;17.23;62.26
74544;BME280;63016;55.030;38.710;2023-07-13T06:48:15;99078.44;;;17.28;61.82
74544;BME280;63016;55.030;38.710;2023-07-13T06:50:42;99081.88;;;17.29;61.63
74544;BME280;63016;55.030;38.710;2023-07-13T06:53:08;99087.69;;;17.31;61.88
74544;BME280;63016;55.030;38.710;2023-07-13T06:55:33;99086.69;;;17.32;61.86
74544;BME280;63016;55.030;38.710;2023-07-13T06:57:59;99083.38;;;17.36;61.99
74544;BME280;63016;55.030;38.710;2023-07-13T07:00:24;99084.50;;;17.40;61.76
74544;BME280;63016;55.030;38.710;2023-07-13T07:02:49;99096.44;;;17.43;61.78
74544;BME280;63016;55.030;38.710;2023-07-13T07:05:15;99087.28;;;17.45;61.91
74544;BME280;63016;55.030;38.710;2023-07-13T07:07:40;99097.94;;;17.51;62.01
74544;BME280;63016;55.030;38.710;2023-07-13T07:10:06;99086.69;;;17.55;61.98
74544;BME280;63016;55.030;38.710;2023-07-13T07:12:32;99093.69;;;17.61;61.96
74544;BME280;63016;55.030;38.710;2023-07-13T07:14:58;99083.69;;;17.63;61.80
74544;BME280;63016;55.030;38.710;2023-07-13T07:17:23;99080.25;;;17.63;61.55
74544;BME280;63016;55.030;38.710;2023-07-13T07:19:50;99085.88;;;17.66;61.72
74544;BME280;63016;55.030;38.710;2023-07-13T07:22:15;99084.38;;;17.70;62.09
74544;BME280;63016;55.030;38.710;2023-07-13T07:24:41;99086.56;;;17.73;61.76
74544;BME280;63016;55.030;38.710;2023-07-13T07:27:06;99092.75;;;17.79;61.95
74544;BME280;63016;55.030;38.710;2023-07-13T07:29:32;99092.06;;;17.84;62.04
74544;BME280;63016;55.030;38.710;2023-07-13T07:31:59;99093.19;;;17.88;62.00
74544;BME280;63016;55.030;38.710;2023-07-13T07:34:24;99092.28;;;17.94;62.08
74544;BME280;63016;55.030;38.710;2023-07-13T07:36:50;99100.63;;;18.03;62.07
74544;BME280;63016;55.030;38.710;2023-07-13T07:39:15;99104.16;;;18.08;62.03
74544;BME280;63016;55.030;38.710;2023-07-13T07:41:41;99091.91;;;18.14;62.24
74544;BME280;63016;55.030;38.710;2023-07-13T07:44:08;99087.50;;;18.19;61.88
74544;BME280;63016;55.030;38.710;2023-07-13T07:46:35;99095.78;;;18.23;61.37
74544;BME280;63016;55.030;38.710;2023-07-13T07:49:01;99097.13;;;18.26;61.68
74544;BME280;63016;55.030;38.710;2023-07-13T07:51:26;99098.28;;;18.30;61.64
74544;BME280;63016;55.030;38.710;2023-07-13T07:53:51;99104.91;;;18.32;61.71
74544;BME280;63016;55.030;38.710;2023-07-13T07:56:17;99108.22;;;18.39;61.37
74544;BME280;63016;55.030;38.710;2023-07-13T07:58:43;99103.50;;;18.41;61.49
74544;BME280;63016;55.030;38.710;2023-07-13T08:01:09;99114.41;;;18.45;61.69
74544;BME280;63016;55.030;38.710;2023-07-13T08:03:35;99102.34;;;18.49;61.36
74544;BME280;63016;55.030;38.710;2023-07-13T08:06:01;99106.09;;;18.53;61.29
74544;BME280;63016;55.030;38.710;2023-07-13T08:08:26;99109.63;;;18.59;61.55
74544;BME280;63016;55.030;38.710;2023-07-13T08:10:53;99112.91;;;18.66;61.46
74544;BME280;63016;55.030;38.710;2023-07-13T08:13:18;99115.47;;;18.72;61.76
74544;BME280;63016;55.030;38.710;2023-07-13T08:15:44;99112.91;;;18.78;61.30
74544;BME280;63016;55.030;38.710;2023-07-13T08:18:10;99115.06;;;18.81;60.98
74544;BME280;63016;55.030;38.710;2023-07-13T08:20:39;99108.50;;;18.83;61.21
74544;BME280;63016;55.030;38.710;2023-07-13T08:23:05;99104.59;;;18.86;61.21
74544;BME280;63016;55.030;38.710;2023-07-13T08:25:31;99110.28;;;18.94;61.47
74544;BME280;63016;55.030;38.710;2023-07-13T08:27:56;99116.44;;;19.00;61.13
74544;BME280;63016;55.030;38.710;2023-07-13T08:30:22;99113.59;;;19.02;61.22
74544;BME280;63016;55.030;38.710;2023-07-13T08:32:48;99120.81;;;19.06;60.94
74544;BME280;63016;55.030;38.710;2023-07-13T08:35:13;99117.66;;;19.09;60.89
74544;BME280;63016;55.030;38.710;2023-07-13T08:37:39;99126.16;;;19.11;60.97
74544;BME280;63016;55.030;38.710;2023-07-13T08:40:05;99119.03;;;19.12;60.52
74544;BME280;63016;55.030;38.710;2023-07-13T08:42:39;99113.75;;;19.12;60.44
74544;BME280;63016;55.030;38.710;2023-07-13T08:47:40;99117.75;;;19.14;60.52
74544;BME280;63016;55.030;38.710;2023-07-13T08:50:11;99122.81;;;19.16;60.39
74544;BME280;63016;55.030;38.710;2023-07-13T08:52:41;99125.19;;;19.17;60.46
74544;BME280;63016;55.030;38.710;2023-07-13T08:55:16;99120.97;;;19.16;60.39
74544;BME280;63016;55.030;38.710;2023-07-13T08:57:48;99135.69;;;19.12;60.28
74544;BME280;63016;55.030;38.710;2023-07-13T09:00:15;99143.09;;;19.10;60.32
74544;BME280;63016;55.030;38.710;2023-07-13T09:02:56;99142.75;;;19.07;60.34
74544;BME280;63016;55.030;38.710;2023-07-13T09:05:38;99118.16;;;19.06;60.84
74544;BME280;63016;55.030;38.710;2023-07-13T09:14:48;99121.84;;;19.05;61.34
74544;BME280;63016;55.030;38.710;2023-07-13T09:16:48;99122.06;;;19.04;61.49
74544;BME280;63016;55.030;38.710;2023-07-13T09:19:21;99131.28;;;19.01;62.00
74544;BME280;63016;55.030;38.710;2023-07-13T09:21:51;99121.44;;;18.96;61.78
74544;BME280;63016;55.030;38.710;2023-07-13T09:25:21;99119.50;;;18.92;61.12
74544;BME280;63016;55.030;38.710;2023-07-13T09:27:55;99118.03;;;18.84;61.21
74544;BME280;63016;55.030;38.710;2023-07-13T09:30:52;99126.69;;;18.80;61.21
74544;BME280;63016;55.030;38.710;2023-07-13T09:33:21;99112.34;;;18.75;61.76
74544;BME280;63016;55.030;38.710;2023-07-13T09:35:47;99121.09;;;18.76;61.97
74544;BME280;63016;55.030;38.710;2023-07-13T09:38:16;99128.78;;;18.78;62.08
74544;BME280;63016;55.030;38.710;2023-07-13T09:41:21;99111.88;;;18.79;61.84
74544;BME280;63016;55.030;38.710;2023-07-13T09:44:10;99106.03;;;18.77;62.15
74544;BME280;63016;55.030;38.710;2023-07-13T09:46:39;99109.22;;;18.79;62.63
74544;BME280;63016;55.030;38.710;2023-07-13T09:49:05;99109.69;;;18.75;62.42
74544;BME280;63016;55.030;38.710;2023-07-13T09:51:31;99113.97;;;18.77;62.65
74544;BME280;63016;55.030;38.710;2023-07-13T09:53:56;99111.88;;;18.79;62.74
74544;BME280;63016;55.030;38.710;2023-07-13T09:56:27;99104.50;;;18.81;62.99
74544;BME280;63016;55.030;38.710;2023-07-13T09:58:55;99100.34;;;18.85;63.32
74544;BME280;63016;55.030;38.710;2023-07-13T10:01:35;99105.06;;;18.83;63.12
74544;BME280;63016;55.030;38.710;2023-07-13T10:04:01;99111.50;;;18.87;63.47
74544;BME280;63016;55.030;38.710;2023-07-13T10:06:27;99106.75;;;18.89;63.19
74544;BME280;63016;55.030;38.710;2023-07-13T10:08:54;99118.94;;;18.90;63.24
74544;BME280;63016;55.030;38.710;2023-07-13T10:11:27;99116.06;;;18.91;63.70
74544;BME280;63016;55.030;38.710;2023-07-13T10:14:02;99116.94;;;18.97;63.39
74544;BME280;63016;55.030;38.710;2023-07-13T10:16:31;99120.94;;;18.99;63.31
74544;BME280;63016;55.030;38.710;2023-07-13T10:21:39;99126.09;;;19.06;62.70
74544;BME280;63016;55.030;38.710;2023-07-13T10:24:12;99130.06;;;19.09;62.86
74544;BME280;63016;55.030;38.710;2023-07-13T10:26:46;99117.66;;;19.09;62.70
74544;BME280;63016;55.030;38.710;2023-07-13T10:29:14;99109.25;;;19.12;62.69
74544;BME280;63016;55.030;38.710;2023-07-13T10:31:40;99125.91;;;19.13;62.12
74544;BME280;63016;55.030;38.710;2023-07-13T10:34:10;99115.81;;;19.10;62.24
74544;BME280;63016;55.030;38.710;2023-07-13T10:36:47;99111.09;;;19.12;62.07
74544;BME280;63016;55.030;38.710;2023-07-13T10:39:26;99094.19;;;19.13;62.24
74544;BME280;63016;55.030;38.710;2023-07-13T10:41:58;99100.06;;;19.15;62.37
74544;BME280;63016;55.030;38.710;2023-07-13T10:44:28;99108.78;;;19.15;62.87
74544;BME280;63016;55.030;38.710;2023-07-13T10:47:07;99100.94;;;19.20;62.42
74544;BME280;63016;55.030;38.710;2023-07-13T10:49:35;99103.06;;;19.23;62.87
74544;BME280;63016;55.030;38.710;2023-07-13T10:52:02;99113.19;;;19.26;62.58
74544;BME280;63016;55.030;38.710;2023-07-13T10:54:33;99108.44;;;19.29;62.44
74544;BME280;63016;55.030;38.710;2023-07-13T10:57:20;99104.78;;;19.30;61.94
74544;BME280;63016;55.030;38.710;2023-07-13T11:02:28;99107.09;;;19.26;62.31
74544;BME280;63016;55.030;38.710;2023-07-13T11:04:55;99103.41;;;19.27;62.19
74544;BME280;63016;55.030;38.710;2023-07-13T11:07:28;99098.91;;;19.27;61.91
74544;BME280;63016;55.030;38.710;2023-07-13T11:09:57;99093.63;;;19.27;62.13
74544;BME280;63016;55.030;38.710;2023-07-13T11:22:51;99107.34;;;19.24;62.28
74544;BME280;63016;55.030;38.710;2023-07-13T11:27:50;99105.72;;;19.23;61.96
74544;BME280;63016;55.030;38.710;2023-07-13T11:30:25;99110.53;;;19.26;62.08
74544;BME280;63016;55.030;38.710;2023-07-13T11:35:37;99108.16;;;19.25;61.69
74544;BME280;63016;55.030;38.710;2023-07-13T11:38:24;99126.97;;;19.29;61.86
74544;BME280;63016;55.030;38.710;2023-07-13T11:40:54;99107.91;;;19.26;61.81
74544;BME280;63016;55.030;38.710;2023-07-13T11:43:20;99121.91;;;19.27;61.67
74544;BME280;63016;55.030;38.710;2023-07-13T11:45:49;99127.22;;;19.27;61.97
74544;BME280;63016;55.030;38.710;2023-07-13T11:48:20;99121.38;;;19.25;61.95
74544;BME280;63016;55.030;38.710;2023-07-13T11:51:02;99134.09;;;19.28;62.06
74544;BME280;63016;55.030;38.710;2023-07-13T11:53:39;99139.16;;;19.30;62.08
74544;BME280;63016;55.030;38.710;2023-07-13T11:56:06;99140.44;;;19.27;62.01
74544;BME280;63016;55.030;38.710;2023-07-13T11:58:32;99150.47;;;19.25;61.55
74544;BME280;63016;55.030;38.710;2023-07-13T12:01:00;99145.88;;;19.20;61.59
74544;BME280;63016;55.030;38.710;2023-07-13T12:03:30;99152.44;;;19.18;61.72
74544;BME280;63016;55.030;38.710;2023-07-13T12:08:26;99160.88;;;19.15;60.89
74544;BME280;63016;55.030;38.710;2023-07-13T12:11:14;99163.41;;;19.10;61.06
74544;BME280;63016;55.030;38.710;2023-07-13T12:13:41;99161.16;;;19.02;61.08
74544;BME280;63016;55.030;38.710;2023-07-13T12:16:22;99159.25;;;18.97;61.39
74544;BME280;63016;55.030;38.710;2023-07-13T12:18:52;99153.63;;;18.93;61.64
74544;BME280;63016;55.030;38.710;2023-07-13T12:21:19;99165.25;;;18.92;61.77
74544;BME280;63016;55.030;38.710;2023-07-13T12:23:49;99167.41;;;18.95;61.86
74544;BME280;63016;55.030;38.710;2023-07-13T12:26:15;99168.94;;;18.91;61.49
74544;BME280;63016;55.030;38.710;2023-07-13T12:28:52;99170.91;;;18.84;60.87
74544;BME280;63016;55.030;38.710;2023-07-13T12:31:40;99188.16;;;18.75;60.38
74544;BME280;63016;55.030;38.710;2023-07-13T12:34:12;99182.91;;;18.63;59.94
74544;BME280;63016;55.030;38.710;2023-07-13T12:36:46;99191.44;;;18.54;60.34
74544;BME280;63016;55.030;38.710;2023-07-13T12:42:27;99181.28;;;18.34;60.39
74544;BME280;63016;55.030;38.710;2023-07-13T12:44:57;99189.22;;;18.22;60.48
74544;BME280;63016;55.030;38.710;2023-07-13T12:47:24;99190.13;;;18.16;60.81
74544;BME280;63016;55.030;38.710;2023-07-13T12:50:00;99188.66;;;18.08;61.17
74544;BME280;63016;55.030;38.710;2023-07-13T12:52:33;99193.00;;;18.03;61.52
74544;BME280;63016;55.030;38.710;2023-07-13T12:55:05;99182.84;;;17.94;61.43
74544;BME280;63016;55.030;38.710;2023-07-13T12:57:39;99198.66;;;17.94;61.50
74544;BME280;63016;55.030;38.710;2023-07-13T13:02:50;99180.78;;;17.85;61.67
74544;BME280;63016;55.030;38.710;2023-07-13T13:05:16;99178.56;;;17.82;61.57
74544;BME280;63016;55.030;38.710;2023-07-13T13:07:42;99176.63;;;17.77;61.75
74544;BME280;63016;55.030;38.710;2023-07-13T13:10:14;99173.44;;;17.75;62.08
74544;BME280;63016;55.030;38.710;2023-07-13T13:12:40;99182.56;;;17.72;62.04
74544;BME280;63016;55.030;38.710;2023-07-13T13:15:09;99190.72;;;17.71;62.04
74544;BME280;63016;55.030;38.710;2023-07-13T13:17:37;99190.94;;;17.69;62.03
74544;BME280;63016;55.030;38.710;2023-07-13T13:20:18;99193.00;;;17.67;62.00
74544;BME280;63016;55.030;38.710;2023-07-13T13:22:43;99184.53;;;17.65;62.07
74544;BME280;63016;55.030;38.710;2023-07-13T13:25:13;99176.25;;;17.62;61.97
74544;BME280;63016;55.030;38.710;2023-07-13T13:27:41;99180.72;;;17.61;62.56
74544;BME280;63016;55.030;38.710;2023-07-13T13:30:15;99173.84;;;17.60;62.77
74544;BME280;63016;55.030;38.710;2023-07-13T13:32:46;99166.28;;;17.52;62.79
74544;BME280;63016;55.030;38.710;2023-07-13T13:35:17;99168.66;;;17.54;62.99
74544;BME280;63016;55.030;38.710;2023-07-13T13:37:43;99166.28;;;17.52;62.87